• Join FlightAware (Why Join?)
  • Login
  • US Flag 
08:43AM EDT


 

Airport Tracker/Info


-or-


 

Live Flight TrackerFlight Track Log ✈ N6797J ✈ 26-Jun-2013 ✈ KLEX - KBOW

Flight Track Log - Related Links

Times and Time Zones

All times are in EDT time to prevent confusion due to time zone crossing. See the N6797J flight status page for this flight to view local times or setup timezone preferences in your user account.

Time Position Orientation Groundspeed Altitude Reporting Facility
EDT Latitude Longitude Course Direction KTS MPH feet Rate Location/Type
02:14PM 37.9758 -84.6731 166° South 149 171 3,900  Level Indianapolis Center
02:15PM 37.9464 -84.7031 219° Southwest 142 163 5,600 1,560 Climbing Indianapolis Center
02:16PM 37.9133 -84.7281 211° Southwest 145 167 7,200 1,440 Climbing Indianapolis Center
02:17PM 37.8700 -84.7103 162° South 162 186 8,600 1,320 Climbing Indianapolis Center
02:18PM 37.8225 -84.6914 163° South 177 204 10,000 1,500 Climbing Indianapolis Center
02:19PM 37.6651 -84.4916 166° South  Level Estimated
02:20PM 37.6031 -84.4722 166° South  Level Estimated
02:20PM 37.7656 -84.6692 163° South 182 209 11,800  Level Indianapolis Center
02:21PM 37.7164 -84.6508 164° South 183 211 13,100 1,260 Climbing Indianapolis Center
02:22PM 37.6664 -84.6419 172° South 181 208 14,400 1,200 Climbing Indianapolis Center
02:23PM 37.6156 -84.6428 181° South 181 208 15,600 1,200 Climbing Indianapolis Center
02:24PM 37.5658 -84.6403 178° South 179 206 16,900 1,020 Climbing Indianapolis Center
02:25PM 37.5147 -84.6361 176° South 182 209 17,800 900 Climbing Indianapolis Center
02:26PM 37.4547 -84.6333 178° South 182 209 18,800 840 Climbing Indianapolis Center
02:27PM 37.4019 -84.6314 178° South 188 216 19,600 780 Climbing Indianapolis Center
02:28PM 37.3494 -84.6358 184° South 188 216 20,400 720 Climbing Indianapolis Center
02:29PM 37.2978 -84.6433 187° South 187 215 21,100 540 Climbing Indianapolis Center
02:30PM 37.2442 -84.6503 186° South 193 222 21,600 480 Climbing Indianapolis Center
02:31PM 37.1786 -84.6569 185° South 202 232 22,200 480 Climbing Indianapolis Center
02:32PM 37.1217 -84.6633 185° South 205 236 22,700 480 Climbing Indianapolis Center
02:33PM 37.0650 -84.6706 186° South 206 237 23,300 480 Climbing Indianapolis Center
02:34PM 37.0083 -84.6800 188° South 203 234 23,800 420 Climbing Indianapolis Center
02:35PM 36.9525 -84.6883 187° South 202 232 24,200 420 Climbing Indianapolis Center
02:36PM 36.8947 -84.6978 187° South 207 238 24,700 360 Climbing Indianapolis Center
02:37PM 36.8364 -84.7081 188° South 211 243 25,000 180 Climbing Indianapolis Center
02:38PM 36.7619 -84.7069 179° South 222 255 25,100  Climbing Indianapolis Center
02:39PM 36.6961 -84.7011 176° South 233 268 25,100  Level Indianapolis Center
02:40PM 36.6283 -84.6933 175° South 241 277 25,100  Level Indianapolis Center
02:41PM 36.5603 -84.6881 176° South 244 281 25,100  Level Indianapolis Center
02:42PM 36.4922 -84.6817 176° South 245 282 25,100  Level Indianapolis Center
02:43PM 36.4244 -84.6750 175° South 244 281 25,100  Level Indianapolis Center
02:44PM 36.3564 -84.6692 176° South 244 281 25,100  Level Indianapolis Center
02:45PM 36.2742 -84.6622 176° South 246 283 25,100  Level Indianapolis Center
02:46PM 36.2050 -84.6558 176° South 247 284 25,100  Level Indianapolis Center
02:47PM 36.1361 -84.6497 176° South 247 284 25,100  Level Indianapolis Center
02:48PM 36.0664 -84.6433 176° South 248 285 25,100  Level Indianapolis Center
02:49PM 35.9958 -84.6369 176° South 251 289 25,100  Level Indianapolis Center
02:50PM 35.9247 -84.6314 176° South 253 291 25,100  Level Indianapolis Center
02:51PM 35.8531 -84.6244 176° South 255 293 25,100  Level Indianapolis Center
02:52PM 35.7811 -84.6181 176° South 256 295 25,100  Level Indianapolis Center
02:54PM 35.6772 -84.6114 177° South 254 292 25,100  Level Atlanta Center
02:55PM 35.6064 -84.6058 176° South 254 292 25,100  Level Atlanta Center
02:56PM 35.5356 -84.5975 175° South 254 292 25,100  Level Atlanta Center
02:57PM 35.4647 -84.5919 176° South 254 292 25,100  Level Atlanta Center
02:58PM 35.3958 -84.5867 176° South 254 292 25,100  Level Atlanta Center
02:59PM 35.3228 -84.5808 176° South 254 292 25,100  Level Atlanta Center
03:00PM 35.2519 -84.5753 176° South 254 292 25,100  Level Atlanta Center
03:01PM 35.1808 -84.5700 177° South 254 292 25,100  Level Atlanta Center
03:02PM 35.1100 -84.5642 176° South 254 292 25,100  Level Atlanta Center
03:03PM 35.0411 -84.5564 175° South 254 292 25,100  Level Atlanta Center
03:04PM 34.9703 -84.5508 176° South 254 292 25,100  Level Atlanta Center
03:05PM 34.8994 -84.5453 176° South 254 292 25,100  Level Atlanta Center
03:06PM 34.8283 -84.5397 176° South 254 292 25,100  Level Atlanta Center
03:07PM 34.7594 -84.5342 176° South 254 292 25,100  Level Atlanta Center
03:08PM 34.6908 -84.5264 175° South 254 292 25,100  Level Atlanta Center
03:09PM 34.6197 -84.5183 175° South 254 292 25,100  Level Atlanta Center
03:10PM 34.5508 -84.5131 176° South 254 292 25,100  Level Atlanta Center
03:11PM 34.4800 -84.5075 176° South 254 292 25,100 -60 Level Atlanta Center
03:12PM 34.4111 -84.5019 176° South 249 287 25,000  Descending Atlanta Center
03:13PM 34.3506 -84.4967 176° South 249 287 25,100  Climbing Atlanta Center
03:14PM 34.2819 -84.4939 178° South 249 287 25,100  Level Atlanta Center
03:15PM 34.2172 -84.4858 174° South 249 287 25,100 -60 Level Atlanta Center
03:16PM 34.1483 -84.4806 176° South 249 287 25,000  Descending Atlanta Center
03:17PM 34.0794 -84.4678 171° South 254 292 25,100  Climbing Atlanta Center
03:18PM 34.0192 -84.4372 157° South 254 292 25,100  Level Atlanta Center
03:19PM 33.9544 -84.4019 156° South 246 283 25,100  Level Atlanta Center
03:20PM 33.8919 -84.3742 160° South 246 283 25,100  Level Atlanta Center
03:21PM 33.8336 -84.3464 158° South 246 283 25,100  Level Atlanta Center
03:22PM 33.7647 -84.3136 158° South 248 285 25,100  Level Atlanta Center
03:23PM 33.6939 -84.2858 162° South 257 296 25,100  Level Atlanta Center
03:24PM 33.6314 -84.2533 157° South 246 283 25,100  Level Atlanta Center
03:25PM 33.5728 -84.2258 159° South 246 283 25,100  Level Atlanta Center
03:26PM 33.5103 -84.1958 158° South 246 283 25,100  Level Atlanta Center
03:27PM 33.4478 -84.1683 160° South 246 283 25,100  Level Atlanta Center
03:28PM 33.3831 -84.1408 160° South 251 289 25,100  Level Atlanta Center
03:29PM 33.3142 -84.1083 158° South 251 289 25,100  Level Atlanta Center
03:30PM 33.2475 -84.0811 161° South 251 289 25,100  Level Atlanta Center
03:31PM 33.1869 -84.0511 157° South 245 282 25,100  Level Atlanta Center
03:32PM 33.1222 -84.0214 159° South 250 288 25,100  Level Atlanta Center
03:33PM 33.0594 -83.9942 160° South 245 282 25,100  Level Atlanta Center
03:34PM 32.9989 -83.9619 156° South 245 282 25,100  Level Atlanta Center
03:35PM 32.9342 -83.9325 159° South 245 282 25,100  Level Atlanta Center
03:36PM 32.8736 -83.9078 161° South 245 282 25,100  Level Atlanta Center
03:37PM 32.8111 -83.8781 158° South 245 282 25,100  Level Atlanta Center
03:38PM 32.7442 -83.8611 168° South 245 282 25,100  Level Atlanta Center
03:39PM 32.6794 -83.8489 171° South 240 276 25,100  Level Atlanta Center
03:40PM 32.6147 -83.8367 171° South 240 276 25,100  Level Atlanta Center
03:41PM 32.5478 -83.8244 171° South 240 276 25,100  Level Atlanta Center
03:42PM 32.4831 -83.8147 173° South 240 276 25,100  Level Atlanta Center
03:43PM 32.4183 -83.8050 173° South 240 276 25,100  Level Atlanta Center
03:44PM 32.3494 -83.7931 172° South 240 276 25,100  Level Atlanta Center
03:45PM 32.2847 -83.7808 171° South 240 276 25,100  Level Atlanta Center
03:46PM 32.2200 -83.7711 173° South 240 276 25,100  Level Atlanta Center
03:47PM 32.1553 -83.7617 173° South 240 276 25,100  Level Atlanta Center
03:48PM 32.0906 -83.7497 171° South 240 276 25,100  Level Atlanta Center
03:49PM 32.0258 -83.7278 164° South 240 276 25,100  Level Atlanta Center
03:50PM 31.9653 -83.6961 156° South 235 270 25,100  Level Atlanta Center
03:51PM 31.9089 -83.6694 158° South 241 277 25,100  Level Atlanta Center
03:52PM 31.8461 -83.6378 157° South 241 277 25,100 -60 Level Atlanta Center
03:53PM 31.7658 -83.6011 159° South 242 278 25,000  Descending Jacksonville Center
03:54PM 31.6972 -83.5617 154° Southeast 247 284 25,100  Climbing Jacksonville Center
03:55PM 31.6347 -83.5319 158° South 252 290 25,100  Level Jacksonville Center
03:56PM 31.5742 -83.5022 157° South 252 290 25,100  Level Jacksonville Center
03:57PM 31.5139 -83.4725 157° South 246 283 25,100  Level Jacksonville Center
03:58PM 31.4533 -83.4381 154° Southeast 246 283 25,100  Level Jacksonville Center
03:59PM 31.3972 -83.3989 149° Southeast 241 277 25,100  Level Jacksonville Center
04:00PM 31.3389 -83.3597 150° Southeast 241 277 25,100  Level Jacksonville Center
04:01PM 31.2783 -83.3203 151° Southeast 241 277 25,100  Level Jacksonville Center
04:02PM 31.2200 -83.2814 150° Southeast 247 284 25,100  Level Jacksonville Center
04:03PM 31.1597 -83.2397 149° Southeast 247 284 25,100  Level Jacksonville Center
04:04PM 31.1014 -83.2008 150° Southeast 247 284 25,100  Level Jacksonville Center
04:05PM 31.0431 -83.1617 150° Southeast 247 284 25,100  Level Jacksonville Center
04:06PM 30.9908 -83.1278 151° Southeast 247 284 25,100  Level Jacksonville Center
04:07PM 30.9325 -83.0889 150° Southeast 247 284 25,100  Level Jacksonville Center
04:08PM 30.8719 -83.0475 150° Southeast 247 284 25,100 -60 Level Jacksonville Center
04:09PM 30.8156 -83.0064 148° Southeast 247 284 25,000 -60 Descending Jacksonville Center
04:10PM 30.7550 -82.9675 151° Southeast 247 284 25,000  Level Jacksonville Center
04:11PM 30.6903 -82.9264 151° Southeast 247 284 25,000  Level Jacksonville Center
04:12PM 30.6297 -82.8903 153° Southeast 247 284 25,000  Level Jacksonville Center
04:13PM 30.5714 -82.8492 149° Southeast 247 284 25,000  Level Jacksonville Center
04:14PM 30.5192 -82.8106 148° Southeast 247 284 25,000 -180 Level Jacksonville Center
04:15PM 30.4586 -82.7719 151° Southeast 247 284 24,700 -480 Descending Jacksonville Center
04:16PM 30.3958 -82.7289 149° Southeast 252 290 24,100 -600 Descending Jacksonville Center
04:17PM 30.3353 -82.6881 150° Southeast 252 290 23,500 -540 Descending Jacksonville Center
04:18PM 30.2725 -82.6519 154° Southeast 252 290 23,100 -240 Descending Jacksonville Center
04:19PM 30.2056 -82.6114 152° Southeast 247 284 23,100  Level Jacksonville Center
04:20PM 30.1450 -82.5683 148° Southeast 247 284 23,100  Level Jacksonville Center
04:21PM 30.0864 -82.5228 146° Southeast 247 284 23,100  Level Jacksonville Center
04:22PM 30.0258 -82.4800 149° Southeast 252 290 23,100  Level Jacksonville Center
04:23PM 29.9733 -82.4322 142° Southeast 261 300 23,100  Level Jacksonville Center
04:24PM 29.9106 -82.3942 152° Southeast 261 300 23,100 -300 Level Jacksonville Center
04:25PM 29.8478 -82.3514 149° Southeast 256 295 22,600 -720 Descending Jacksonville Center
04:26PM 29.7789 -82.3133 154° Southeast 246 283 21,700 -960 Descending Jacksonville Center
04:27PM 29.7222 -82.2756 150° Southeast 246 283 20,700 -1,020 Descending Jacksonville Center
04:28PM 29.6594 -82.2378 152° Southeast 251 289 19,700 -840 Descending Jacksonville Center
04:29PM 29.5922 -82.1953 151° Southeast 251 289 19,100 -300 Descending Jacksonville Center
04:30PM 29.5317 -82.1575 152° Southeast 251 289 19,100 -600 Level Jacksonville Center
04:31PM 29.4647 -82.1556 179° South 234 269 18,000 -1,080 Descending Jacksonville Center
04:32PM 29.3917 -82.1464 174° South 246 283 17,000 -540 Descending Jacksonville Center
04:33PM 29.3247 -82.1375 173° South 252 290 17,000 -180 Level Jacksonville Center
04:34PM 29.2558 -82.1333 177° South 252 290 16,700 -540 Descending Jacksonville Center
04:35PM 29.1892 -82.1242 173° South 252 290 16,000 -900 Descending Jacksonville Center
04:36PM 29.1244 -82.1200 177° South 252 290 14,900 -1,020 Descending Jacksonville Center
04:37PM 29.0575 -82.1158 177° South 252 290 14,000 -960 Descending Jacksonville Center
04:38PM 28.9928 -82.1067 173° South 252 290 13,000 -1,080 Descending Jacksonville Center
04:39PM 28.9239 -82.1050 179° South 247 284 11,900 -600 Descending Jacksonville Center
04:41PM 28.7667 -82.0833 173° South 239 275 11,000 -300 Descending Tampa TRACON
04:43PM 28.7000 -82.0833 180° South 237 273 11,000  Level Tampa TRACON
04:44PM 28.6333 -82.0833 180° South 240 276 11,000 -300 Level Tampa TRACON
04:45PM 28.5667 -82.0667 168° South 231 266 10,400 -780 Descending Tampa TRACON
04:46PM 28.5000 -82.0667 180° South 222 255 9,500 -1,140 Descending Tampa TRACON
04:46PM 28.4500 -82.0667 180° South 217 250 8,300 -1,620 Descending Tampa TRACON
04:47PM 28.3833 -82.0667 180° South 211 243 6,500 -1,800 Descending Tampa TRACON
04:48PM 28.3333 -82.0667 180° South 214 246 4,700 -1,740 Descending Tampa TRACON
04:49PM 28.2667 -82.0667 180° South 207 238 3,000 -1,020 Descending Tampa TRACON
04:50PM 28.2167 -82.0333 150° Southeast 197 227 2,700 -300 Descending Tampa TRACON